This is the latest recevied weather packets stored in our database for station/object TB1YZC-13. If no packets are shown the sender has not sent any weather packets the latest 10 day(s).
| Time | Temp. | Humidity | Pressure | Rain* | Wind** | Luminosity | Snow |
|---|---|---|---|---|---|---|---|
| 1788483929 | 20° C | 95% | 1016.7 hPa | - | - | - | - |
| 1788483326 | 20.56° C | 95% | 1016.7 hPa | - | - | - | - |
| 1788482723 | 19.44° C | 95% | 1016.8 hPa | - | - | - | - |
| 1788482119 | 20° C | 93% | 1016.7 hPa | - | - | - | - |
| 1788481516 | 20.56° C | 92% | 1016.6 hPa | - | - | - | - |
| 1788480913 | 20.56° C | 91% | 1016.5 hPa | - | - | - | - |
| 1788480310 | 21.11° C | 91% | 1016.5 hPa | - | - | - | - |
| 1788479732 | 20.56° C | 91% | 1016.6 hPa | - | - | - | - |
| 1788479104 | 20.56° C | 92% | 1016.6 hPa | - | - | - | - |
| 1788478500 | 20.56° C | 93% | 1016.6 hPa | - | - | - | - |
| 1788477897 | 20.56° C | 93% | 1016.6 hPa | - | - | - | - |
| 1788477294 | 20° C | 92% | 1016.7 hPa | - | - | - | - |
| 1788476691 | 20° C | 92% | 1016.8 hPa | - | - | - | - |
| 1788476089 | 20.56° C | 91% | 1016.7 hPa | - | - | - | - |
| 1788475485 | 20.56° C | 90% | 1016.7 hPa | - | - | - | - |
| 1788474882 | 21.11° C | 90% | 1016.7 hPa | - | - | - | - |
| 1788474279 | 20.56° C | 90% | 1016.8 hPa | - | - | - | - |
| 1788473676 | 20.56° C | 90% | 1016.8 hPa | - | - | - | - |
| 1788473073 | 21.11° C | 90% | 1016.9 hPa | - | - | - | - |
| 1788472469 | 21.11° C | 89% | 1016.9 hPa | - | - | - | - |
| 1788471866 | 21.11° C | 88% | 1016.9 hPa | - | - | - | - |
| 1788471264 | 21.11° C | 88% | 1016.9 hPa | - | - | - | - |
| 1788470660 | 21.11° C | 90% | 1016.8 hPa | - | - | - | - |
| 1788470057 | 21.11° C | 90% | 1016.8 hPa | - | - | - | - |
| 1788469454 | 21.11° C | 89% | 1017 hPa | - | - | - | - |
* Rain since midnight (hover to see other rain measurements)
** Current wind speed in m/s (hover to see current wind gust speed)